»·PEaware :: C-GLGA KSNA-KBUR

C-GLGA :: KSNA-KBUR

FLIGHT INFORMATION

Flight Status: Arrived
Operator: Privately registered:
Canada
More flights under this callsign
Pilot: Matt G. (17748)
Aircraft: CESSNA 208 CARAVAN
(C208)
More flights by this aircraft type
Origin: KSNA John Wayne-Orange Co
United States
Destination: KBUR Bob Hope-Burbank
United States
More flights between these airports :: More routes between these airports
Route: +SLI V23 POPPR SMO125R SMO SMO311R SILEX
File this flight plan on PilotEdge
Remarks: TEC CSTN1 - I-3 Rating
Altitude:
(Current/Filed)
4,000ft
Speed:
(Current/Filed)
160kts
Departed: 09-Jan-18 03:08 PM
Arrived: 09-Jan-18 03:36 PM
Distance/Time
Traveled:
40nm/0:28
Distance/Time
To Go:
Arrived

Flight Plot

Page will automatically refresh every two minutes.


Map Options




Map Legend


Flown Route
Filed Route
Departure Airport
Arrival Airport
Navaid (VOR, NDB)
Fix

Horizontal Profiles

Position Reports

Time Latitude Longitude Heading Altitude Ground
Speed
09-Jan-18 14:50 33.671480 -117.867274 208 61ft 0kts
09-Jan-18 14:51 33.671480 -117.867274 208 61ft 0kts
09-Jan-18 14:52 33.671480 -117.867274 208 61ft 0kts
09-Jan-18 14:53 33.671480 -117.867274 208 61ft 0kts
09-Jan-18 14:54 33.671480 -117.867274 208 61ft 0kts
09-Jan-18 14:55 33.671480 -117.867274 208 61ft 0kts
09-Jan-18 14:56 33.671471 -117.867280 208 61ft 0kts
09-Jan-18 14:57 33.671471 -117.867280 208 61ft 0kts
09-Jan-18 14:58 33.671471 -117.867280 208 61ft 0kts
09-Jan-18 14:59 33.671471 -117.867280 208 61ft 0kts
09-Jan-18 15:00 33.671471 -117.867280 208 61ft 0kts
09-Jan-18 15:01 33.671471 -117.867280 208 61ft 0kts
09-Jan-18 15:02 33.671471 -117.867280 208 61ft 0kts
09-Jan-18 15:03 33.671471 -117.867280 208 61ft 0kts
09-Jan-18 15:04 33.671471 -117.867280 208 61ft 0kts
09-Jan-18 15:05 33.671471 -117.867280 208 61ft 0kts
09-Jan-18 15:06 33.671471 -117.867280 208 61ft 0kts
09-Jan-18 15:07 33.671471 -117.867280 208 61ft 0kts
09-Jan-18 15:08 33.671502 -117.867756 308 61ft 3kts
09-Jan-18 15:09 33.673399 -117.866964 19 61ft 7kts
09-Jan-18 15:10 33.675251 -117.866377 27 61ft 8kts
09-Jan-18 15:11 33.677767 -117.864794 28 61ft 13kts
09-Jan-18 15:12 33.679939 -117.863596 290 61ft 0kts
09-Jan-18 15:13 33.679967 -117.863700 299 61ft 0kts
09-Jan-18 15:14 33.677175 -117.866028 207 63ft 78kts
09-Jan-18 15:15 33.659849 -117.888708 237 1080ft 107kts
09-Jan-18 15:16 33.643164 -117.918877 232 1962ft 111kts
09-Jan-18 15:17 33.625765 -117.946013 231 3097ft 111kts
09-Jan-18 15:18 33.607232 -117.976089 241 3937ft 121kts
09-Jan-18 15:19 33.619821 -118.016789 291 3982ft 131kts
09-Jan-18 15:20 33.633988 -118.051242 291 3980ft 147kts
09-Jan-18 15:21 33.654082 -118.095002 310 3978ft 153kts
09-Jan-18 15:22 33.686430 -118.129997 313 3966ft 154kts
09-Jan-18 15:23 33.719353 -118.164682 315 3968ft 159kts
09-Jan-18 15:24 33.751006 -118.196181 316 4010ft 159kts
09-Jan-18 15:25 33.785473 -118.229942 316 4011ft 160kts
09-Jan-18 15:26 33.814363 -118.258974 315 4009ft 160kts
09-Jan-18 15:27 33.848489 -118.293619 316 4007ft 161kts
09-Jan-18 15:28 33.882821 -118.328161 316 4006ft 161kts
09-Jan-18 15:29 33.917231 -118.362807 316 4003ft 160kts
09-Jan-18 15:30 33.948975 -118.394845 316 3996ft 160kts
09-Jan-18 15:31 33.983195 -118.429388 316 3996ft 160kts
09-Jan-18 15:32 34.017476 -118.464175 316 3996ft 161kts
09-Jan-18 15:33 34.051703 -118.499274 316 3996ft 161kts
09-Jan-18 15:34 34.090892 -118.526339 332 3999ft 164kts
09-Jan-18 15:35 34.132794 -118.548678 332 4001ft 164kts
09-Jan-18 15:36 34.174668 -118.571015 332 4003ft 164kts
09-Jan-18 15:37 34.213369 -118.572753 67 3372ft 142kts
09-Jan-18 15:38 34.203438 -118.532625 108 3006ft 127kts
09-Jan-18 15:39 34.199424 -118.486731 90 2736ft 153kts
09-Jan-18 15:40 34.198814 -118.438382 93 2121ft 143kts
09-Jan-18 15:41 34.198290 -118.393204 94 1141ft 89kts
09-Jan-18 15:42 34.197863 -118.366625 91 726ft 35kts
09-Jan-18 15:43 34.196557 -118.364694 172 726ft 8kts
09-Jan-18 15:44 34.196178 -118.364668 178 726ft 0kts
09-Jan-18 15:45 34.196178 -118.364668 178 726ft 0kts
09-Jan-18 15:46 34.196178 -118.364668 178 726ft 0kts
09-Jan-18 15:47 34.196178 -118.364668 178 726ft 0kts

Navigation Log

Ident Type
1. KSNA Airport
2. SLI Navaid
3. POPPR Fix
4. SMO Navaid
5. SILEX Fix
6. KBUR Airport